createdAt,value
2022-10-11T00:00:24.761Z,19.27
2022-10-11T00:03:07.041Z,20.30
2022-10-11T00:05:49.092Z,20.48
2022-10-11T00:08:30.340Z,20.17
2022-10-11T00:11:11.944Z,20.20
2022-10-11T00:13:53.785Z,24.40
2022-10-11T00:16:38.824Z,18.05
2022-10-11T00:19:20.958Z,18.98
2022-10-11T00:22:01.954Z,16.10
2022-10-11T00:24:44.088Z,16.73
2022-10-11T00:27:24.588Z,19.30
2022-10-11T00:30:07.672Z,17.75
2022-10-11T00:32:50.553Z,16.35
2022-10-11T00:35:32.333Z,17.58
2022-10-11T00:38:13.544Z,16.50
2022-10-11T00:40:55.966Z,14.98
2022-10-11T00:43:38.556Z,18.88
2022-10-11T00:46:34.129Z,17.83
2022-10-11T00:49:26.871Z,15.32
2022-10-11T00:52:15.994Z,14.80
2022-10-11T00:54:59.560Z,14.32
2022-10-11T00:57:46.391Z,17.95
2022-10-11T01:00:29.301Z,17.77
2022-10-11T01:03:12.149Z,22.88
2022-10-11T01:05:54.602Z,18.05
2022-10-11T01:08:35.899Z,16.88
2022-10-11T01:11:20.842Z,14.63
2022-10-11T01:14:16.755Z,22.40
2022-10-11T01:17:05.016Z,17.67
2022-10-11T01:20:02.071Z,23.10
2022-10-11T01:23:17.052Z,23.52
2022-10-11T01:26:20.794Z,19.27
2022-10-11T01:29:15.079Z,21.83
2022-10-11T01:32:02.606Z,18.67
2022-10-11T01:34:56.114Z,14.75
2022-10-11T01:37:41.587Z,14.73
2022-10-11T01:40:29.481Z,15.48
2022-10-11T01:43:13.164Z,18.40
2022-10-11T01:45:57.615Z,14.80
2022-10-11T01:48:51.241Z,18.52
2022-10-11T01:51:37.864Z,13.48
2022-10-11T01:55:08.678Z,18.02
2022-10-11T01:58:09.222Z,18.40
2022-10-11T02:00:58.158Z,16.85
2022-10-11T02:03:48.291Z,15.80
2022-10-11T02:06:37.901Z,17.35
2022-10-11T02:09:27.133Z,24.85
2022-10-11T02:12:13.683Z,16.13
2022-10-11T02:14:57.587Z,17.88
2022-10-11T02:17:45.960Z,16.25
2022-10-11T02:20:33.176Z,19.20
2022-10-11T02:23:21.774Z,18.75
2022-10-11T02:26:06.878Z,15.93
2022-10-11T02:28:52.609Z,24.52
2022-10-11T02:31:36.739Z,16.92
2022-10-11T02:34:29.141Z,19.75
2022-10-11T02:37:17.998Z,16.05
2022-10-11T02:40:05.404Z,15.68
2022-10-11T02:42:52.386Z,19.70
2022-10-11T02:45:39.133Z,24.83
2022-10-11T02:48:21.321Z,21.67
2022-10-11T02:51:04.918Z,19.90
2022-10-11T02:53:47.106Z,17.60
2022-10-11T02:56:30.155Z,15.98
2022-10-11T02:59:10.921Z,15.95
2022-10-11T03:01:52.367Z,18.38
2022-10-11T03:04:34.130Z,16.17
2022-10-11T03:07:15.790Z,17.45
2022-10-11T03:09:58.168Z,15.60
2022-10-11T03:12:40.072Z,22.40
2022-10-11T03:15:22.554Z,18.77
2022-10-11T03:18:04.622Z,24.10
2022-10-11T03:20:48.123Z,18.25
2022-10-11T03:23:30.346Z,18.00
2022-10-11T03:26:12.512Z,18.48
2022-10-11T03:28:53.076Z,19.60
2022-10-11T03:31:34.134Z,13.63
2022-10-11T03:34:15.521Z,13.80
2022-10-11T03:36:56.711Z,19.25
2022-10-11T03:39:38.998Z,17.45
2022-10-11T03:42:20.058Z,16.55
2022-10-11T03:45:04.918Z,18.55
2022-10-11T03:47:45.741Z,19.05
2022-10-11T03:50:27.118Z,20.75
2022-10-11T03:53:08.841Z,13.98
2022-10-11T03:55:53.886Z,19.45
2022-10-11T03:58:35.054Z,14.90
2022-10-11T04:01:16.052Z,17.38
2022-10-11T04:03:58.497Z,15.18
2022-10-11T04:06:38.581Z,14.27
2022-10-11T04:09:20.231Z,15.18
2022-10-11T04:12:01.905Z,12.73
2022-10-11T04:14:42.998Z,9.40
2022-10-11T04:17:24.516Z,12.68
2022-10-11T04:20:07.969Z,12.52
2022-10-11T04:22:49.329Z,12.63
2022-10-11T04:25:30.511Z,14.13
2022-10-11T04:28:11.764Z,13.00
2022-10-11T04:30:53.839Z,13.70
2022-10-11T04:33:33.554Z,12.60
2022-10-11T04:36:14.195Z,17.67
2022-10-11T04:38:56.282Z,14.05
2022-10-11T04:41:37.243Z,12.73
2022-10-11T04:44:18.768Z,13.00
2022-10-11T04:46:59.895Z,10.52
2022-10-11T04:49:41.187Z,10.55
2022-10-11T04:52:25.934Z,8.68
2022-10-11T04:55:08.341Z,16.88
2022-10-11T04:57:49.074Z,12.52
2022-10-11T05:00:30.292Z,10.10
2022-10-11T05:03:12.227Z,6.15
2022-10-11T05:05:56.517Z,21.05
2022-10-11T05:08:37.537Z,7.53
2022-10-11T05:11:19.805Z,12.02
2022-10-11T05:14:00.368Z,15.30
2022-10-11T05:16:41.698Z,8.75
2022-10-11T05:19:23.461Z,8.45
2022-10-11T05:22:07.332Z,7.80
2022-10-11T05:24:47.808Z,8.93
2022-10-11T05:27:29.328Z,11.65
2022-10-11T05:30:11.928Z,16.40
2022-10-11T05:33:08.224Z,8.90
2022-10-11T05:35:49.613Z,7.57
2022-10-11T05:38:30.826Z,5.90
2022-10-11T05:41:14.944Z,9.20
2022-10-11T05:43:56.492Z,6.50
2022-10-11T05:46:38.040Z,14.80
2022-10-11T05:49:19.648Z,11.02
2022-10-11T05:52:00.860Z,11.90
2022-10-11T05:54:42.512Z,7.47
2022-10-11T05:57:24.106Z,9.40
2022-10-11T06:00:05.614Z,7.55
2022-10-11T06:02:53.568Z,10.18
2022-10-11T06:05:35.660Z,10.02
2022-10-11T06:08:17.598Z,8.48
2022-10-11T06:10:58.590Z,9.68
2022-10-11T06:13:46.876Z,16.50
2022-10-11T06:16:50.858Z,6.70
2022-10-11T06:19:45.326Z,10.32
2022-10-11T06:22:45.124Z,9.90
2022-10-11T06:25:40.055Z,9.18
2022-10-11T06:28:46.724Z,6.30
2022-10-11T06:31:56.764Z,7.30
2022-10-11T06:34:52.067Z,9.52
2022-10-11T06:37:51.465Z,9.23
2022-10-11T06:40:56.007Z,11.68
2022-10-11T06:43:50.650Z,8.75
2022-10-11T06:46:46.989Z,11.35
2022-10-11T06:49:41.908Z,15.10
2022-10-11T06:52:40.251Z,10.15
2022-10-11T06:55:38.284Z,13.55
2022-10-11T06:58:39.139Z,15.80
2022-10-11T07:01:36.014Z,14.73
2022-10-11T07:04:35.115Z,17.02
2022-10-11T07:07:38.452Z,10.75
2022-10-11T07:10:39.044Z,6.70
2022-10-11T07:13:33.988Z,10.73
2022-10-11T07:16:31.725Z,4.45
2022-10-11T07:19:36.023Z,7.18
2022-10-11T07:22:37.085Z,6.25
2022-10-11T07:25:34.386Z,4.88
2022-10-11T07:28:32.673Z,6.07
2022-10-11T07:32:11.363Z,6.95
2022-10-11T07:35:11.743Z,9.43
2022-10-11T07:38:11.432Z,6.97
2022-10-11T07:41:07.385Z,7.95
2022-10-11T07:44:07.008Z,10.43
2022-10-11T07:47:08.964Z,10.10
2022-10-11T07:50:11.429Z,11.35
2022-10-11T07:53:10.013Z,6.60
2022-10-11T07:56:09.457Z,6.88
2022-10-11T07:59:12.193Z,8.40
2022-10-11T08:01:51.650Z,7.97
2022-10-11T08:04:58.522Z,6.55
2022-10-11T08:08:06.288Z,6.78
2022-10-11T08:11:06.620Z,6.93
2022-10-11T08:14:08.871Z,6.80
2022-10-11T08:17:05.997Z,6.10
2022-10-11T08:20:15.722Z,8.80
2022-10-11T08:23:23.037Z,10.43
2022-10-11T08:26:17.936Z,10.45
2022-10-11T08:29:22.098Z,7.20
2022-10-11T08:32:16.415Z,6.65
2022-10-11T08:35:30.094Z,8.13
2022-10-11T08:38:31.083Z,9.45
2022-10-11T08:41:49.806Z,6.78
2022-10-11T08:45:10.012Z,6.18
2022-10-11T08:48:15.765Z,4.18
2022-10-11T08:51:29.361Z,5.50
2022-10-11T08:54:33.328Z,9.13
2022-10-11T08:57:41.041Z,7.20
2022-10-11T09:00:38.253Z,15.10
2022-10-11T09:03:40.490Z,8.55
2022-10-11T09:06:35.108Z,8.98
2022-10-11T09:09:37.953Z,3.58
2022-10-11T09:12:32.385Z,7.57
2022-10-11T09:15:21.766Z,6.88
2022-10-11T09:18:39.333Z,9.05
2022-10-11T09:21:31.808Z,5.60
2022-10-11T09:24:29.500Z,7.63
2022-10-11T09:27:14.005Z,5.60
2022-10-11T09:30:04.329Z,4.13
2022-10-11T09:32:49.158Z,9.38
2022-10-11T09:35:20.259Z,5.30
2022-10-11T09:37:57.088Z,4.32
2022-10-11T09:40:44.476Z,5.32
2022-10-11T09:43:13.454Z,5.00
2022-10-11T09:45:49.155Z,10.18
2022-10-11T09:48:24.316Z,5.90
2022-10-11T09:51:04.174Z,5.43
2022-10-11T09:53:53.941Z,6.18
2022-10-11T09:56:22.756Z,8.98
2022-10-11T09:58:51.317Z,8.65
2022-10-11T10:01:30.036Z,10.27
2022-10-11T10:04:09.398Z,5.00
2022-10-11T10:06:38.080Z,5.85
2022-10-11T10:09:25.621Z,9.13
2022-10-11T10:11:55.144Z,9.70
2022-10-11T10:14:26.459Z,8.52
2022-10-11T10:17:02.251Z,4.15
2022-10-11T10:19:44.663Z,6.35
2022-10-11T10:22:19.747Z,7.38
2022-10-11T10:24:50.113Z,5.60
2022-10-11T10:27:22.318Z,6.47
2022-10-11T10:30:04.598Z,5.85
2022-10-11T10:32:43.789Z,5.63
2022-10-11T10:35:27.721Z,5.85
2022-10-11T10:38:05.179Z,6.38
2022-10-11T10:40:40.273Z,4.10
2022-10-11T10:43:15.686Z,5.00
2022-10-11T10:45:58.384Z,7.93
2022-10-11T10:49:11.737Z,6.53
2022-10-11T10:51:40.849Z,7.80
2022-10-11T10:54:20.569Z,6.00
2022-10-11T10:56:54.057Z,11.18
2022-10-11T10:59:40.575Z,6.10
2022-10-11T11:02:38.883Z,4.28
2022-10-11T11:05:16.389Z,7.65
2022-10-11T11:07:51.434Z,22.80
2022-10-11T11:10:22.839Z,4.40
2022-10-11T11:12:57.334Z,6.93
2022-10-11T11:15:37.624Z,7.07
2022-10-11T11:18:22.202Z,6.75
2022-10-11T11:21:03.929Z,9.93
2022-10-11T11:23:41.824Z,5.85
2022-10-11T11:26:17.027Z,9.73
2022-10-11T11:30:57.563Z,5.00
2022-10-11T11:33:36.398Z,7.38
2022-10-11T11:36:11.053Z,4.25
2022-10-11T11:38:47.072Z,6.53
2022-10-11T11:41:20.715Z,6.45
2022-10-11T11:44:03.675Z,3.95
2022-10-11T11:46:39.726Z,7.78
2022-10-11T11:49:14.856Z,7.53
2022-10-11T11:51:45.514Z,4.55
2022-10-11T11:54:28.743Z,11.68
2022-10-11T11:57:04.351Z,9.02
2022-10-11T11:59:38.701Z,7.00
2022-10-11T12:02:35.128Z,5.65
2022-10-11T12:05:03.465Z,6.53
2022-10-11T12:07:32.177Z,7.10
2022-10-11T12:10:16.643Z,7.80
2022-10-11T12:12:45.127Z,5.60
2022-10-11T12:15:26.144Z,8.50
2022-10-11T12:18:17.500Z,4.68
2022-10-11T12:20:46.271Z,3.83
2022-10-11T12:23:43.937Z,6.25
2022-10-11T12:26:35.501Z,6.85
2022-10-11T12:29:25.858Z,9.63
2022-10-11T12:32:13.621Z,6.22
2022-10-11T12:34:44.422Z,8.73
2022-10-11T12:37:51.610Z,6.63
2022-10-11T12:40:41.745Z,6.53
2022-10-11T12:43:12.427Z,5.88
2022-10-11T12:45:41.597Z,5.75
2022-10-11T12:48:34.972Z,8.63
2022-10-11T12:51:27.028Z,3.30
2022-10-11T12:54:26.021Z,5.72
2022-10-11T12:57:17.284Z,7.07
2022-10-11T12:59:46.938Z,8.43
2022-10-11T13:02:28.967Z,8.20
2022-10-11T13:05:09.539Z,3.70
2022-10-11T13:07:43.315Z,6.97
2022-10-11T13:10:15.913Z,4.18
2022-10-11T13:12:48.123Z,10.48
2022-10-11T13:15:20.241Z,7.20
2022-10-11T13:17:51.781Z,5.32
2022-10-11T13:20:22.560Z,6.03
2022-10-11T13:22:54.156Z,5.15
2022-10-11T13:25:24.869Z,4.97
2022-10-11T13:27:55.412Z,6.05
2022-10-11T13:33:23.897Z,6.75
2022-10-11T13:35:54.021Z,6.57
2022-10-11T13:38:29.751Z,11.02
2022-10-11T13:40:59.716Z,4.60
2022-10-11T13:43:30.095Z,12.75
2022-10-11T13:46:00.435Z,9.75
2022-10-11T13:48:31.973Z,5.82
2022-10-11T13:51:08.028Z,5.15
2022-10-11T13:53:37.599Z,4.65
2022-10-11T13:56:09.561Z,17.05
2022-10-11T13:58:40.560Z,7.47
2022-10-11T14:01:19.327Z,6.50
2022-10-11T14:03:50.261Z,5.00
2022-10-11T14:06:18.496Z,7.50
2022-10-11T14:08:51.018Z,7.45
2022-10-11T14:11:34.671Z,6.35
2022-10-11T14:14:30.117Z,4.00
2022-10-11T14:17:05.005Z,8.50
2022-10-11T14:19:33.516Z,10.40
2022-10-11T14:22:01.803Z,8.45
2022-10-11T14:24:31.287Z,5.95
2022-10-11T14:27:00.023Z,5.18
2022-10-11T14:29:30.097Z,7.13
2022-10-11T14:32:03.566Z,8.13
2022-10-11T14:34:33.183Z,5.93
2022-10-11T14:37:01.467Z,3.92
2022-10-11T14:39:33.322Z,6.50
2022-10-11T14:42:01.819Z,8.57
2022-10-11T14:48:50.192Z,9.32
2022-10-11T14:51:15.669Z,7.05
2022-10-11T14:53:46.433Z,4.65
2022-10-11T14:56:21.076Z,11.70
2022-10-11T14:58:49.920Z,11.48
2022-10-11T15:01:18.970Z,10.77
2022-10-11T15:03:47.149Z,7.35
2022-10-11T15:06:19.942Z,9.02
2022-10-11T15:08:48.555Z,6.30
2022-10-11T15:11:20.712Z,6.05
2022-10-11T15:13:48.856Z,5.95
2022-10-11T15:16:20.236Z,8.50
2022-10-11T15:18:51.059Z,10.75
2022-10-11T15:21:21.351Z,9.60
2022-10-11T15:23:50.891Z,19.33
2022-10-11T15:26:22.122Z,27.42
2022-10-11T15:28:51.357Z,21.73
2022-10-11T15:31:19.972Z,19.88
2022-10-11T15:33:48.568Z,10.23
2022-10-11T15:36:19.459Z,6.90
2022-10-11T15:38:48.774Z,10.77
2022-10-11T15:41:20.330Z,13.18
2022-10-11T15:43:50.200Z,9.75
2022-10-11T15:46:20.828Z,9.30
2022-10-11T15:48:51.243Z,10.13
2022-10-11T15:51:19.991Z,3.83
2022-10-11T15:53:48.279Z,8.20
2022-10-11T15:56:19.002Z,6.40
2022-10-11T15:58:48.694Z,6.18
2022-10-11T16:01:18.846Z,12.75
2022-10-11T16:03:48.175Z,3.92
2022-10-11T16:06:16.682Z,10.82
2022-10-11T16:08:45.149Z,14.95
2022-10-11T16:11:13.873Z,9.10
2022-10-11T16:13:42.353Z,17.63
2022-10-11T16:16:12.720Z,22.30
2022-10-11T16:18:41.149Z,14.23
2022-10-11T16:21:11.795Z,12.10
2022-10-11T16:23:40.099Z,8.05
2022-10-11T16:26:13.374Z,5.60
2022-10-11T16:28:42.687Z,8.18
2022-10-11T16:31:16.770Z,9.75
2022-10-11T16:33:46.703Z,4.65
2022-10-11T16:36:34.782Z,7.03
2022-10-11T16:39:05.684Z,5.35
2022-10-11T16:41:34.273Z,6.82
2022-10-11T16:44:02.445Z,6.93
2022-10-11T16:46:33.452Z,6.18
2022-10-11T16:49:01.619Z,9.43
2022-10-11T16:51:29.687Z,7.10
2022-10-11T16:53:57.917Z,8.15
2022-10-11T16:56:26.321Z,8.35
2022-10-11T16:58:55.396Z,7.97
2022-10-11T17:01:24.290Z,7.95
2022-10-11T17:03:54.211Z,8.70
2022-10-11T17:06:22.616Z,9.85
2022-10-11T17:08:50.784Z,5.53
2022-10-11T17:11:19.357Z,11.93
2022-10-11T17:13:47.796Z,9.40
2022-10-11T17:16:16.322Z,10.05
2022-10-11T17:18:44.618Z,19.63
2022-10-11T17:21:16.635Z,13.30
2022-10-11T17:23:44.695Z,10.25
2022-10-11T17:26:17.278Z,11.35
2022-10-11T17:28:45.704Z,11.77
2022-10-11T17:31:14.289Z,9.20
2022-10-11T17:33:42.411Z,8.20
2022-10-11T17:36:27.898Z,11.23
2022-10-11T17:38:56.376Z,10.40
2022-10-11T17:41:29.420Z,7.78
2022-10-11T17:44:01.121Z,11.50
2022-10-11T17:46:32.671Z,11.52
2022-10-11T17:49:02.045Z,10.75
2022-10-11T17:51:32.713Z,7.68
2022-10-11T17:54:01.063Z,13.20
2022-10-11T17:56:33.828Z,11.10
2022-10-11T17:59:04.928Z,11.07
2022-10-11T18:01:33.160Z,17.00
2022-10-11T18:04:03.588Z,9.73
2022-10-11T18:06:35.147Z,10.75
2022-10-11T18:09:04.629Z,17.27
2022-10-11T18:11:33.104Z,26.15
2022-10-11T18:14:01.753Z,16.05
2022-10-11T18:16:31.721Z,13.52
2022-10-11T18:19:00.345Z,14.02
2022-10-11T18:21:34.348Z,13.07
2022-10-11T18:24:07.865Z,17.10
2022-10-11T18:26:36.035Z,14.40
2022-10-11T18:29:05.375Z,18.25
2022-10-11T18:31:35.300Z,19.80
2022-10-11T18:34:04.743Z,20.15
2022-10-11T18:36:34.155Z,15.52
2022-10-11T18:39:06.520Z,16.80
2022-10-11T18:41:35.659Z,17.25
2022-10-11T18:44:06.823Z,23.02
2022-10-11T18:46:35.707Z,16.77
2022-10-11T18:49:04.607Z,24.77
2022-10-11T18:51:34.598Z,22.38
2022-10-11T18:54:03.366Z,30.02
2022-10-11T18:56:34.676Z,28.27
2022-10-11T18:59:02.934Z,16.25
2022-10-11T19:01:33.982Z,17.35
2022-10-11T19:04:04.384Z,25.75
2022-10-11T19:06:34.257Z,15.85
2022-10-11T19:09:04.920Z,13.20
2022-10-11T19:11:34.624Z,18.58
2022-10-11T19:14:06.433Z,16.02
2022-10-11T19:16:37.601Z,16.95
2022-10-11T19:19:06.836Z,20.67
2022-10-11T19:21:35.195Z,17.92
2022-10-11T19:24:03.380Z,17.45
2022-10-11T19:26:34.894Z,26.83
2022-10-11T19:29:06.079Z,24.63
2022-10-11T19:31:36.257Z,25.08
2022-10-11T19:34:05.021Z,18.48
2022-10-11T19:36:36.637Z,22.35
2022-10-11T19:39:06.711Z,24.10
2022-10-11T19:41:36.469Z,27.63
2022-10-11T19:44:04.997Z,27.58
2022-10-11T19:49:24.861Z,23.00
2022-10-11T19:51:53.633Z,26.92
2022-10-11T19:54:21.801Z,22.33
2022-10-11T19:56:51.363Z,27.30
2022-10-11T19:59:19.698Z,20.77
2022-10-11T20:01:52.354Z,17.10
2022-10-11T20:07:11.180Z,16.58
2022-10-11T20:09:39.593Z,13.52
2022-10-11T20:12:09.864Z,10.52
2022-10-11T20:14:37.990Z,22.33
2022-10-11T20:17:06.001Z,12.20
2022-10-11T20:19:34.167Z,22.55
2022-10-11T20:22:02.965Z,18.40
2022-10-11T20:24:33.622Z,21.65
2022-10-11T20:27:03.018Z,37.22
2022-10-11T20:29:33.162Z,27.88
2022-10-11T20:32:02.012Z,64.75
2022-10-11T20:34:31.167Z,76.05
2022-10-11T20:36:59.924Z,75.47
2022-10-11T20:39:29.269Z,37.78
2022-10-11T20:41:57.602Z,32.65
2022-10-11T20:44:25.882Z,16.10
2022-10-11T20:46:56.191Z,13.27
2022-10-11T20:49:25.577Z,15.32
2022-10-11T20:51:53.616Z,23.23
2022-10-11T20:54:21.760Z,10.35
2022-10-11T20:56:49.927Z,15.32
2022-10-11T20:59:17.966Z,15.88
2022-10-11T21:01:46.318Z,14.95
2022-10-11T21:04:19.592Z,14.57
2022-10-11T21:06:48.461Z,15.60
2022-10-11T21:09:17.488Z,13.07
2022-10-11T21:11:46.062Z,16.90
2022-10-11T21:14:14.768Z,16.35
2022-10-11T21:16:43.463Z,14.18
2022-10-11T21:19:14.888Z,15.05
2022-10-11T21:21:49.720Z,9.27
2022-10-11T21:24:20.832Z,14.70
2022-10-11T21:26:49.130Z,12.70
2022-10-11T21:29:17.621Z,9.60
2022-10-11T21:31:45.917Z,14.38
2022-10-11T21:34:14.226Z,7.57
2022-10-11T21:36:42.607Z,7.90
2022-10-11T21:39:12.031Z,8.55
2022-10-11T21:41:42.269Z,12.85
2022-10-11T21:44:10.785Z,7.90
2022-10-11T21:49:26.947Z,11.15
2022-10-11T21:51:55.473Z,19.23
2022-10-11T21:54:25.108Z,13.68
2022-10-11T21:56:53.225Z,7.43
2022-10-11T21:59:22.707Z,12.88
2022-10-11T22:01:50.889Z,10.90
2022-10-11T22:04:19.068Z,9.27
2022-10-11T22:06:47.172Z,5.85
2022-10-11T22:09:15.477Z,8.55
2022-10-11T22:11:45.223Z,16.00
2022-10-11T22:14:13.747Z,11.38
2022-10-11T22:16:41.793Z,10.20
2022-10-11T22:19:09.826Z,12.90
2022-10-11T22:21:44.030Z,10.02
2022-10-11T22:24:13.038Z,9.73
2022-10-11T22:26:41.287Z,17.38
2022-10-11T22:29:10.672Z,8.10
2022-10-11T22:31:39.435Z,9.02
2022-10-11T22:34:07.888Z,9.88
2022-10-11T22:36:36.310Z,10.57
2022-10-11T22:39:07.866Z,7.90
2022-10-11T22:41:36.496Z,7.28
2022-10-11T22:44:05.648Z,8.35
2022-10-11T22:46:35.196Z,10.32
2022-10-11T22:49:03.205Z,12.02
2022-10-11T22:51:32.914Z,18.05
2022-10-11T22:54:01.481Z,13.27
2022-10-11T22:56:30.040Z,20.08
2022-10-11T22:59:00.092Z,20.48
2022-10-11T23:01:28.647Z,24.73
2022-10-11T23:03:58.091Z,29.42
2022-10-11T23:06:26.460Z,22.40
2022-10-11T23:08:54.468Z,15.25
2022-10-11T23:11:22.607Z,11.40
2022-10-11T23:13:51.173Z,12.48
2022-10-11T23:16:19.217Z,9.32
2022-10-11T23:18:47.237Z,15.88
2022-10-11T23:21:17.007Z,8.63
2022-10-11T23:23:45.038Z,12.45
2022-10-11T23:26:14.529Z,7.93
2022-10-11T23:28:43.743Z,10.52
2022-10-11T23:31:13.695Z,6.78
2022-10-11T23:33:41.793Z,9.68
2022-10-11T23:36:16.499Z,13.30
2022-10-11T23:38:45.147Z,9.65
2022-10-11T23:41:13.494Z,14.50
2022-10-11T23:43:41.792Z,22.33
2022-10-11T23:46:09.781Z,24.73
2022-10-11T23:48:38.053Z,33.58
2022-10-11T23:51:06.653Z,26.80
2022-10-11T23:53:36.431Z,33.28
2022-10-11T23:56:04.868Z,31.15
2022-10-11T23:58:33.382Z,20.42
